»·PEaware :: N81068 KSNA-KSBD

N81068 :: KSNA-KSBD

FLIGHT INFORMATION

Flight Status: Arrived
Operator: Privately registered:
United States
More flights under this callsign
Pilot: Sean M. (20132)
Aircraft: CESSNA 172 SKYHAWK
(C172)
More flights by this aircraft type
Origin: KSNA John Wayne-Orange Co
United States
Destination: KSBD San Bernardino Intl
United States
More flights between these airports :: More routes between these airports
Route: +
File this flight plan on PilotEdge
Remarks:
Altitude:
(Current/Filed)
5,000ft
Speed:
(Current/Filed)
115kts
Departed: 13-Sep-18 10:27 AM
Arrived: 13-Sep-18 11:01 AM
Distance/Time
Traveled:
40nm/0:34
Distance/Time
To Go:
Arrived

Flight Plot

Page will automatically refresh every two minutes.


Map Options




Map Legend


Flown Route
Filed Route
Departure Airport
Arrival Airport
Navaid (VOR, NDB)
Fix

Horizontal Profiles

Position Reports

Time Latitude Longitude Heading Altitude Ground
Speed
13-Sep-18 09:48 33.667170 -117.872135 225 60ft 0kts
13-Sep-18 09:49 33.667170 -117.872135 225 60ft 0kts
13-Sep-18 09:50 33.667170 -117.872135 225 60ft 0kts
13-Sep-18 09:51 33.667170 -117.872135 225 60ft 0kts
13-Sep-18 09:52 33.667170 -117.872135 225 60ft 0kts
13-Sep-18 09:54 33.667170 -117.872135 225 60ft 0kts
13-Sep-18 09:55 33.667170 -117.872135 225 60ft 0kts
13-Sep-18 09:57 33.667170 -117.872135 225 60ft 0kts
13-Sep-18 09:58 33.667170 -117.872135 225 60ft 0kts
13-Sep-18 09:59 33.667170 -117.872135 225 60ft 0kts
13-Sep-18 10:00 33.667170 -117.872135 225 60ft 0kts
13-Sep-18 10:01 33.667170 -117.872135 225 60ft 0kts
13-Sep-18 10:02 33.667170 -117.872135 225 60ft 0kts
13-Sep-18 10:03 33.667170 -117.872135 225 60ft 0kts
13-Sep-18 10:04 33.667170 -117.872135 225 60ft 0kts
13-Sep-18 10:05 33.667170 -117.872135 225 60ft 0kts
13-Sep-18 10:06 33.667170 -117.872135 225 60ft 0kts
13-Sep-18 10:07 33.667170 -117.872135 225 60ft 0kts
13-Sep-18 10:08 33.667170 -117.872135 225 60ft 0kts
13-Sep-18 10:09 33.667170 -117.872135 225 60ft 0kts
13-Sep-18 10:10 33.667170 -117.872136 225 60ft 0kts
13-Sep-18 10:11 33.667170 -117.872136 225 60ft 0kts
13-Sep-18 10:12 33.667170 -117.872136 225 60ft 0kts
13-Sep-18 10:13 33.667170 -117.872136 225 60ft 0kts
13-Sep-18 10:14 33.667170 -117.872136 225 60ft 0kts
13-Sep-18 10:15 33.667170 -117.872136 225 60ft 0kts
13-Sep-18 10:16 33.667170 -117.872136 225 60ft 0kts
13-Sep-18 10:17 33.667170 -117.872136 225 60ft 0kts
13-Sep-18 10:18 33.667170 -117.872136 225 60ft 0kts
13-Sep-18 10:19 33.667170 -117.872136 225 60ft 0kts
13-Sep-18 10:20 33.667170 -117.872136 225 60ft 0kts
13-Sep-18 10:21 33.667170 -117.872136 225 60ft 0kts
13-Sep-18 10:22 33.667170 -117.872136 225 60ft 0kts
13-Sep-18 10:23 33.667159 -117.872153 233 60ft 4kts
13-Sep-18 10:24 33.672057 -117.868157 30 60ft 38kts
13-Sep-18 10:25 33.675791 -117.866042 32 60ft 31kts
13-Sep-18 10:26 33.679881 -117.863470 258 60ft 0kts
13-Sep-18 10:27 33.679881 -117.863470 258 60ft 0kts
13-Sep-18 10:28 33.680066 -117.864101 262 60ft 10kts
13-Sep-18 10:29 33.669217 -117.875038 239 535ft 91kts
13-Sep-18 10:30 33.656755 -117.902415 240 1354ft 101kts
13-Sep-18 10:31 33.643904 -117.930860 240 1997ft 115kts
13-Sep-18 10:32 33.628276 -117.966184 250 1995ft 131kts
13-Sep-18 10:33 33.648394 -117.983412 19 2267ft 121kts
13-Sep-18 10:34 33.677510 -117.970121 20 2588ft 121kts
13-Sep-18 10:35 33.706339 -117.956832 20 2875ft 122kts
13-Sep-18 10:36 33.734954 -117.943637 20 3137ft 122kts
13-Sep-18 10:37 33.762710 -117.930848 20 3478ft 117kts
13-Sep-18 10:38 33.789647 -117.918444 20 3854ft 117kts
13-Sep-18 10:39 33.814835 -117.901663 41 4199ft 118kts
13-Sep-18 10:40 33.829944 -117.871799 68 4518ft 118kts
13-Sep-18 10:41 33.839270 -117.838767 72 4809ft 119kts
13-Sep-18 10:42 33.848258 -117.804167 72 4999ft 124kts
13-Sep-18 10:43 33.857394 -117.768614 72 4999ft 128kts
13-Sep-18 10:44 33.866954 -117.731402 71 4974ft 130kts
13-Sep-18 10:45 33.876648 -117.693733 71 4972ft 129kts
13-Sep-18 10:46 33.886263 -117.656116 72 4972ft 129kts
13-Sep-18 10:47 33.896954 -117.620132 47 4971ft 127kts
13-Sep-18 10:48 33.924454 -117.609063 11 4972ft 111kts
13-Sep-18 10:49 33.949354 -117.593202 40 4830ft 121kts
13-Sep-18 10:50 33.972151 -117.569064 41 4399ft 130kts
13-Sep-18 10:51 33.995223 -117.544440 41 3999ft 129kts
13-Sep-18 10:52 34.013334 -117.516712 73 3601ft 131kts
13-Sep-18 10:53 34.022739 -117.480486 71 3272ft 121kts
13-Sep-18 10:54 34.031200 -117.451025 69 3175ft 78kts
13-Sep-18 10:55 34.037979 -117.428445 69 3172ft 87kts
13-Sep-18 10:56 34.046267 -117.405636 74 3192ft 87kts
13-Sep-18 10:57 34.051976 -117.382679 70 3227ft 86kts
13-Sep-18 10:58 34.059183 -117.357067 70 2929ft 99kts
13-Sep-18 10:59 34.067205 -117.329473 70 2474ft 93kts
13-Sep-18 11:00 34.074922 -117.303538 70 2033ft 92kts
13-Sep-18 11:01 34.082390 -117.278450 70 1604ft 89kts
13-Sep-18 11:02 34.089524 -117.254465 69 1197ft 88kts
13-Sep-18 11:03 34.094615 -117.236634 62 1113ft 34kts
13-Sep-18 11:04 34.097285 -117.237060 334 1112ft 38kts
13-Sep-18 11:05 34.103942 -117.245227 262 1099ft 0kts
13-Sep-18 11:06 34.103941 -117.245236 261 1099ft 0kts

Navigation Log

Ident Type
Flight plan parsing failed, navigation log unavailable